sensor_id;sensor_type;location;lat;lon;timestamp;P1;durP1;ratioP1;P2;durP2;ratioP2
71836;SDS011;59686;51.716;7.016;2022-12-18T00:01:47;45.57;;;24.20;;
71836;SDS011;59686;51.716;7.016;2022-12-18T00:04:23;43.70;;;24.00;;
71836;SDS011;59686;51.716;7.016;2022-12-18T00:06:50;46.17;;;24.30;;
71836;SDS011;59686;51.716;7.016;2022-12-18T00:09:21;47.00;;;24.60;;
71836;SDS011;59686;51.716;7.016;2022-12-18T00:11:47;40.83;;;24.00;;
71836;SDS011;59686;51.716;7.016;2022-12-18T00:14:13;47.10;;;24.07;;
71836;SDS011;59686;51.716;7.016;2022-12-18T00:16:39;44.30;;;23.53;;
71836;SDS011;59686;51.716;7.016;2022-12-18T00:19:08;38.57;;;23.07;;
71836;SDS011;59686;51.716;7.016;2022-12-18T00:21:35;44.13;;;23.60;;
71836;SDS011;59686;51.716;7.016;2022-12-18T00:24:01;43.80;;;23.10;;
71836;SDS011;59686;51.716;7.016;2022-12-18T00:26:31;43.00;;;22.67;;
71836;SDS011;59686;51.716;7.016;2022-12-18T00:28:58;44.53;;;22.93;;
71836;SDS011;59686;51.716;7.016;2022-12-18T00:31:29;41.53;;;22.97;;
71836;SDS011;59686;51.716;7.016;2022-12-18T00:33:56;40.27;;;21.83;;
71836;SDS011;59686;51.716;7.016;2022-12-18T00:36:26;37.87;;;21.97;;
71836;SDS011;59686;51.716;7.016;2022-12-18T00:38:54;43.43;;;21.63;;
71836;SDS011;59686;51.716;7.016;2022-12-18T00:44:34;38.17;;;20.30;;
71836;SDS011;59686;51.716;7.016;2022-12-18T00:46:59;34.90;;;20.87;;
71836;SDS011;59686;51.716;7.016;2022-12-18T00:49:25;39.13;;;21.53;;
71836;SDS011;59686;51.716;7.016;2022-12-18T00:51:51;36.40;;;20.47;;
71836;SDS011;59686;51.716;7.016;2022-12-18T00:54:16;36.23;;;20.87;;
71836;SDS011;59686;51.716;7.016;2022-12-18T00:56:42;37.10;;;20.20;;
71836;SDS011;59686;51.716;7.016;2022-12-18T00:59:08;35.33;;;21.03;;
71836;SDS011;59686;51.716;7.016;2022-12-18T01:01:34;38.37;;;20.17;;
71836;SDS011;59686;51.716;7.016;2022-12-18T01:04:00;36.47;;;19.53;;
71836;SDS011;59686;51.716;7.016;2022-12-18T01:06:37;35.93;;;20.40;;
71836;SDS011;59686;51.716;7.016;2022-12-18T01:09:03;36.67;;;20.67;;
71836;SDS011;59686;51.716;7.016;2022-12-18T01:11:28;32.17;;;18.80;;
71836;SDS011;59686;51.716;7.016;2022-12-18T01:13:54;34.07;;;19.33;;
71836;SDS011;59686;51.716;7.016;2022-12-18T01:16:20;34.50;;;19.17;;
71836;SDS011;59686;51.716;7.016;2022-12-18T01:18:46;34.87;;;19.77;;
71836;SDS011;59686;51.716;7.016;2022-12-18T01:24:24;33.20;;;18.30;;
71836;SDS011;59686;51.716;7.016;2022-12-18T01:26:50;35.17;;;18.97;;
71836;SDS011;59686;51.716;7.016;2022-12-18T01:29:15;29.93;;;18.70;;
71836;SDS011;59686;51.716;7.016;2022-12-18T01:31:41;31.03;;;18.47;;
71836;SDS011;59686;51.716;7.016;2022-12-18T01:34:07;33.43;;;17.60;;
71836;SDS011;59686;51.716;7.016;2022-12-18T01:36:35;33.97;;;18.03;;
71836;SDS011;59686;51.716;7.016;2022-12-18T01:39:03;30.57;;;18.30;;
71836;SDS011;59686;51.716;7.016;2022-12-18T01:41:35;32.20;;;17.73;;
71836;SDS011;59686;51.716;7.016;2022-12-18T01:47:21;29.77;;;17.67;;
71836;SDS011;59686;51.716;7.016;2022-12-18T01:50:04;28.70;;;17.77;;
71836;SDS011;59686;51.716;7.016;2022-12-18T01:52:33;30.53;;;18.33;;
71836;SDS011;59686;51.716;7.016;2022-12-18T01:55:00;29.17;;;17.23;;
71836;SDS011;59686;51.716;7.016;2022-12-18T01:57:28;29.23;;;17.10;;
71836;SDS011;59686;51.716;7.016;2022-12-18T01:59:59;28.10;;;17.60;;
71836;SDS011;59686;51.716;7.016;2022-12-18T02:02:28;29.03;;;16.97;;
71836;SDS011;59686;51.716;7.016;2022-12-18T02:04:55;27.30;;;17.03;;
71836;SDS011;59686;51.716;7.016;2022-12-18T02:10:11;27.67;;;16.73;;
71836;SDS011;59686;51.716;7.016;2022-12-18T02:15:26;29.13;;;16.93;;
71836;SDS011;59686;51.716;7.016;2022-12-18T02:18:02;27.17;;;15.83;;
71836;SDS011;59686;51.716;7.016;2022-12-18T02:29:16;25.10;;;15.77;;
71836;SDS011;59686;51.716;7.016;2022-12-18T02:31:50;31.30;;;17.50;;
71836;SDS011;59686;51.716;7.016;2022-12-18T02:34:19;27.37;;;16.67;;
71836;SDS011;59686;51.716;7.016;2022-12-18T02:36:49;25.80;;;16.03;;
71836;SDS011;59686;51.716;7.016;2022-12-18T02:39:18;25.83;;;15.43;;
71836;SDS011;59686;51.716;7.016;2022-12-18T02:41:46;23.50;;;15.20;;
71836;SDS011;59686;51.716;7.016;2022-12-18T02:44:13;24.77;;;15.73;;
71836;SDS011;59686;51.716;7.016;2022-12-18T02:46:40;29.17;;;16.50;;
71836;SDS011;59686;51.716;7.016;2022-12-18T02:49:32;26.57;;;15.67;;
71836;SDS011;59686;51.716;7.016;2022-12-18T03:00:38;25.17;;;15.63;;
71836;SDS011;59686;51.716;7.016;2022-12-18T03:06:26;26.33;;;15.67;;
71836;SDS011;59686;51.716;7.016;2022-12-18T03:08:58;26.23;;;16.10;;
71836;SDS011;59686;51.716;7.016;2022-12-18T03:11:28;26.40;;;15.70;;
71836;SDS011;59686;51.716;7.016;2022-12-18T03:14:16;24.17;;;15.30;;
71836;SDS011;59686;51.716;7.016;2022-12-18T03:16:45;25.40;;;15.30;;
71836;SDS011;59686;51.716;7.016;2022-12-18T03:19:15;24.83;;;16.03;;
71836;SDS011;59686;51.716;7.016;2022-12-18T03:21:51;25.63;;;15.93;;
71836;SDS011;59686;51.716;7.016;2022-12-18T03:24:20;24.77;;;15.23;;
71836;SDS011;59686;51.716;7.016;2022-12-18T03:26:49;22.77;;;14.43;;
71836;SDS011;59686;51.716;7.016;2022-12-18T03:29:26;23.37;;;14.10;;
71836;SDS011;59686;51.716;7.016;2022-12-18T03:32:00;25.57;;;15.17;;
71836;SDS011;59686;51.716;7.016;2022-12-18T03:34:30;21.03;;;14.30;;
71836;SDS011;59686;51.716;7.016;2022-12-18T03:36:59;23.50;;;14.13;;
71836;SDS011;59686;51.716;7.016;2022-12-18T03:39:29;24.03;;;14.90;;
71836;SDS011;59686;51.716;7.016;2022-12-18T03:45:11;23.77;;;14.77;;
71836;SDS011;59686;51.716;7.016;2022-12-18T03:51:00;21.30;;;14.30;;
71836;SDS011;59686;51.716;7.016;2022-12-18T03:55:50;23.53;;;13.67;;
71836;SDS011;59686;51.716;7.016;2022-12-18T03:58:21;22.73;;;13.80;;
71836;SDS011;59686;51.716;7.016;2022-12-18T04:00:52;21.97;;;14.07;;
71836;SDS011;59686;51.716;7.016;2022-12-18T04:03:20;22.97;;;13.93;;
71836;SDS011;59686;51.716;7.016;2022-12-18T04:05:48;24.93;;;14.87;;
71836;SDS011;59686;51.716;7.016;2022-12-18T04:08:16;22.37;;;13.43;;
71836;SDS011;59686;51.716;7.016;2022-12-18T04:10:42;24.83;;;13.80;;
71836;SDS011;59686;51.716;7.016;2022-12-18T04:13:08;21.50;;;13.57;;
71836;SDS011;59686;51.716;7.016;2022-12-18T04:15:34;24.20;;;14.30;;
71836;SDS011;59686;51.716;7.016;2022-12-18T04:18:01;22.50;;;13.97;;
71836;SDS011;59686;51.716;7.016;2022-12-18T04:20:27;22.43;;;14.67;;
71836;SDS011;59686;51.716;7.016;2022-12-18T04:22:53;22.73;;;14.90;;
71836;SDS011;59686;51.716;7.016;2022-12-18T04:25:18;22.77;;;14.50;;
71836;SDS011;59686;51.716;7.016;2022-12-18T04:27:44;22.77;;;13.57;;
71836;SDS011;59686;51.716;7.016;2022-12-18T04:30:10;23.30;;;14.70;;
71836;SDS011;59686;51.716;7.016;2022-12-18T04:32:36;22.40;;;13.67;;
71836;SDS011;59686;51.716;7.016;2022-12-18T04:35:01;20.73;;;13.20;;
71836;SDS011;59686;51.716;7.016;2022-12-18T04:37:29;21.83;;;14.03;;
71836;SDS011;59686;51.716;7.016;2022-12-18T04:39:55;22.27;;;14.07;;
71836;SDS011;59686;51.716;7.016;2022-12-18T04:42:20;21.17;;;13.07;;
71836;SDS011;59686;51.716;7.016;2022-12-18T04:44:46;21.23;;;13.87;;
71836;SDS011;59686;51.716;7.016;2022-12-18T04:47:12;21.10;;;12.90;;
71836;SDS011;59686;51.716;7.016;2022-12-18T04:49:37;21.07;;;13.77;;
71836;SDS011;59686;51.716;7.016;2022-12-18T04:52:03;18.07;;;12.33;;
71836;SDS011;59686;51.716;7.016;2022-12-18T04:54:29;21.63;;;13.03;;
71836;SDS011;59686;51.716;7.016;2022-12-18T04:56:57;20.63;;;13.60;;
71836;SDS011;59686;51.716;7.016;2022-12-18T04:59:23;20.27;;;12.37;;
71836;SDS011;59686;51.716;7.016;2022-12-18T05:01:48;20.40;;;13.57;;
71836;SDS011;59686;51.716;7.016;2022-12-18T05:04:14;20.53;;;12.53;;
71836;SDS011;59686;51.716;7.016;2022-12-18T05:06:40;22.67;;;12.73;;
71836;SDS011;59686;51.716;7.016;2022-12-18T05:09:05;21.23;;;13.20;;
71836;SDS011;59686;51.716;7.016;2022-12-18T05:11:31;19.13;;;12.63;;
71836;SDS011;59686;51.716;7.016;2022-12-18T05:13:56;19.50;;;12.93;;
71836;SDS011;59686;51.716;7.016;2022-12-18T05:16:22;17.50;;;11.87;;
71836;SDS011;59686;51.716;7.016;2022-12-18T05:18:48;20.53;;;12.67;;
71836;SDS011;59686;51.716;7.016;2022-12-18T05:21:13;20.13;;;12.70;;
71836;SDS011;59686;51.716;7.016;2022-12-18T05:23:39;20.13;;;12.27;;
71836;SDS011;59686;51.716;7.016;2022-12-18T05:26:05;19.03;;;11.93;;
71836;SDS011;59686;51.716;7.016;2022-12-18T05:28:33;19.33;;;12.13;;
71836;SDS011;59686;51.716;7.016;2022-12-18T05:31:00;18.87;;;12.40;;
71836;SDS011;59686;51.716;7.016;2022-12-18T05:33:29;18.57;;;12.43;;
71836;SDS011;59686;51.716;7.016;2022-12-18T05:35:57;19.57;;;12.20;;
71836;SDS011;59686;51.716;7.016;2022-12-18T05:38:25;19.97;;;12.30;;
71836;SDS011;59686;51.716;7.016;2022-12-18T05:40:52;17.40;;;12.40;;
71836;SDS011;59686;51.716;7.016;2022-12-18T05:43:18;19.33;;;11.77;;
71836;SDS011;59686;51.716;7.016;2022-12-18T05:45:46;18.50;;;12.33;;
71836;SDS011;59686;51.716;7.016;2022-12-18T05:50:42;19.30;;;12.03;;
71836;SDS011;59686;51.716;7.016;2022-12-18T05:53:12;19.37;;;12.87;;
71836;SDS011;59686;51.716;7.016;2022-12-18T05:55:40;19.70;;;11.97;;
71836;SDS011;59686;51.716;7.016;2022-12-18T05:58:07;19.83;;;13.40;;
71836;SDS011;59686;51.716;7.016;2022-12-18T06:00:37;19.50;;;11.87;;
71836;SDS011;59686;51.716;7.016;2022-12-18T06:03:05;19.97;;;12.13;;
71836;SDS011;59686;51.716;7.016;2022-12-18T06:05:36;23.07;;;12.63;;
71836;SDS011;59686;51.716;7.016;2022-12-18T06:08:03;19.47;;;11.83;;
71836;SDS011;59686;51.716;7.016;2022-12-18T06:10:29;18.93;;;12.27;;
71836;SDS011;59686;51.716;7.016;2022-12-18T06:12:55;17.90;;;11.87;;
71836;SDS011;59686;51.716;7.016;2022-12-18T06:15:27;20.93;;;12.57;;
71836;SDS011;59686;51.716;7.016;2022-12-18T06:17:53;17.60;;;11.93;;
71836;SDS011;59686;51.716;7.016;2022-12-18T06:20:18;18.20;;;12.60;;
71836;SDS011;59686;51.716;7.016;2022-12-18T06:22:44;20.80;;;13.33;;
71836;SDS011;59686;51.716;7.016;2022-12-18T06:25:10;18.40;;;11.97;;
71836;SDS011;59686;51.716;7.016;2022-12-18T06:27:44;18.27;;;12.23;;
71836;SDS011;59686;51.716;7.016;2022-12-18T06:30:12;18.27;;;12.17;;
71836;SDS011;59686;51.716;7.016;2022-12-18T06:32:38;21.73;;;12.17;;
71836;SDS011;59686;51.716;7.016;2022-12-18T06:35:04;18.13;;;11.90;;
71836;SDS011;59686;51.716;7.016;2022-12-18T06:37:30;19.13;;;12.00;;
71836;SDS011;59686;51.716;7.016;2022-12-18T06:40:04;18.60;;;12.30;;
71836;SDS011;59686;51.716;7.016;2022-12-18T06:42:31;19.23;;;12.03;;
71836;SDS011;59686;51.716;7.016;2022-12-18T06:44:57;19.37;;;12.03;;
71836;SDS011;59686;51.716;7.016;2022-12-18T06:47:22;19.60;;;12.10;;
71836;SDS011;59686;51.716;7.016;2022-12-18T06:49:48;18.50;;;12.00;;
71836;SDS011;59686;51.716;7.016;2022-12-18T06:52:16;19.27;;;12.03;;
71836;SDS011;59686;51.716;7.016;2022-12-18T06:54:41;17.03;;;12.00;;
71836;SDS011;59686;51.716;7.016;2022-12-18T06:57:07;18.47;;;11.93;;
71836;SDS011;59686;51.716;7.016;2022-12-18T06:59:33;19.43;;;12.27;;
71836;SDS011;59686;51.716;7.016;2022-12-18T07:01:58;17.67;;;11.83;;
71836;SDS011;59686;51.716;7.016;2022-12-18T07:04:31;20.70;;;12.43;;
71836;SDS011;59686;51.716;7.016;2022-12-18T07:06:57;17.77;;;11.77;;
71836;SDS011;59686;51.716;7.016;2022-12-18T07:09:23;16.97;;;11.87;;
71836;SDS011;59686;51.716;7.016;2022-12-18T07:11:49;19.77;;;11.40;;
71836;SDS011;59686;51.716;7.016;2022-12-18T07:14:14;19.70;;;11.93;;
71836;SDS011;59686;51.716;7.016;2022-12-18T07:16:40;17.37;;;11.53;;
71836;SDS011;59686;51.716;7.016;2022-12-18T07:19:06;17.10;;;11.83;;
71836;SDS011;59686;51.716;7.016;2022-12-18T07:21:32;15.83;;;10.23;;
71836;SDS011;59686;51.716;7.016;2022-12-18T07:24:01;16.63;;;11.23;;
71836;SDS011;59686;51.716;7.016;2022-12-18T07:26:27;18.63;;;11.43;;
71836;SDS011;59686;51.716;7.016;2022-12-18T07:28:56;19.63;;;11.57;;
71836;SDS011;59686;51.716;7.016;2022-12-18T07:31:22;17.70;;;11.10;;
71836;SDS011;59686;51.716;7.016;2022-12-18T07:33:49;14.87;;;11.10;;
71836;SDS011;59686;51.716;7.016;2022-12-18T07:36:15;16.57;;;11.20;;
71836;SDS011;59686;51.716;7.016;2022-12-18T07:38:46;20.00;;;11.60;;
71836;SDS011;59686;51.716;7.016;2022-12-18T07:41:13;16.87;;;10.80;;
71836;SDS011;59686;51.716;7.016;2022-12-18T07:43:40;17.17;;;10.90;;
71836;SDS011;59686;51.716;7.016;2022-12-18T07:46:06;17.13;;;11.43;;
71836;SDS011;59686;51.716;7.016;2022-12-18T07:48:34;16.30;;;10.53;;
71836;SDS011;59686;51.716;7.016;2022-12-18T07:50:59;15.27;;;10.33;;
71836;SDS011;59686;51.716;7.016;2022-12-18T07:53:26;16.13;;;10.77;;
71836;SDS011;59686;51.716;7.016;2022-12-18T07:55:59;16.37;;;10.60;;
71836;SDS011;59686;51.716;7.016;2022-12-18T07:58:27;15.37;;;10.67;;
71836;SDS011;59686;51.716;7.016;2022-12-18T08:00:53;15.13;;;10.07;;
71836;SDS011;59686;51.716;7.016;2022-12-18T08:03:19;17.40;;;10.37;;
71836;SDS011;59686;51.716;7.016;2022-12-18T08:05:45;14.57;;;10.47;;
71836;SDS011;59686;51.716;7.016;2022-12-18T08:08:11;15.53;;;10.40;;
71836;SDS011;59686;51.716;7.016;2022-12-18T08:10:37;18.13;;;10.57;;
71836;SDS011;59686;51.716;7.016;2022-12-18T08:13:04;14.53;;;10.40;;
71836;SDS011;59686;51.716;7.016;2022-12-18T08:15:29;17.50;;;10.83;;
71836;SDS011;59686;51.716;7.016;2022-12-18T08:17:58;16.67;;;10.10;;
71836;SDS011;59686;51.716;7.016;2022-12-18T08:20:23;15.67;;;10.90;;
71836;SDS011;59686;51.716;7.016;2022-12-18T08:22:49;16.80;;;10.90;;
71836;SDS011;59686;51.716;7.016;2022-12-18T08:25:15;16.40;;;10.40;;
71836;SDS011;59686;51.716;7.016;2022-12-18T08:27:41;15.40;;;10.57;;
71836;SDS011;59686;51.716;7.016;2022-12-18T08:30:06;15.57;;;10.50;;
71836;SDS011;59686;51.716;7.016;2022-12-18T08:32:33;16.17;;;10.33;;
71836;SDS011;59686;51.716;7.016;2022-12-18T08:34:58;16.00;;;10.67;;
71836;SDS011;59686;51.716;7.016;2022-12-18T08:37:24;15.30;;;10.60;;
71836;SDS011;59686;51.716;7.016;2022-12-18T08:39:50;14.70;;;9.87;;
71836;SDS011;59686;51.716;7.016;2022-12-18T08:42:15;14.00;;;9.83;;
71836;SDS011;59686;51.716;7.016;2022-12-18T08:45:00;13.67;;;10.03;;
71836;SDS011;59686;51.716;7.016;2022-12-18T08:47:26;14.63;;;10.60;;
71836;SDS011;59686;51.716;7.016;2022-12-18T08:49:52;15.00;;;10.03;;
71836;SDS011;59686;51.716;7.016;2022-12-18T08:52:17;16.03;;;10.07;;
71836;SDS011;59686;51.716;7.016;2022-12-18T08:54:43;14.73;;;10.40;;
71836;SDS011;59686;51.716;7.016;2022-12-18T08:57:09;17.17;;;10.67;;
71836;SDS011;59686;51.716;7.016;2022-12-18T08:59:34;16.10;;;10.10;;
71836;SDS011;59686;51.716;7.016;2022-12-18T09:02:00;14.33;;;10.27;;
71836;SDS011;59686;51.716;7.016;2022-12-18T09:04:26;14.30;;;9.60;;
71836;SDS011;59686;51.716;7.016;2022-12-18T09:06:51;13.80;;;9.63;;
71836;SDS011;59686;51.716;7.016;2022-12-18T09:09:17;14.23;;;9.60;;
71836;SDS011;59686;51.716;7.016;2022-12-18T09:11:43;13.30;;;9.63;;
71836;SDS011;59686;51.716;7.016;2022-12-18T09:14:08;14.40;;;9.90;;
71836;SDS011;59686;51.716;7.016;2022-12-18T09:16:34;13.03;;;9.17;;
71836;SDS011;59686;51.716;7.016;2022-12-18T09:19:08;13.17;;;9.27;;
71836;SDS011;59686;51.716;7.016;2022-12-18T09:21:35;12.93;;;9.27;;
71836;SDS011;59686;51.716;7.016;2022-12-18T09:24:03;14.53;;;10.07;;
71836;SDS011;59686;51.716;7.016;2022-12-18T09:26:29;13.70;;;9.83;;
71836;SDS011;59686;51.716;7.016;2022-12-18T09:28:55;14.67;;;9.30;;
71836;SDS011;59686;51.716;7.016;2022-12-18T09:31:21;17.10;;;8.83;;
71836;SDS011;59686;51.716;7.016;2022-12-18T09:33:48;12.40;;;8.53;;
71836;SDS011;59686;51.716;7.016;2022-12-18T09:36:15;13.20;;;9.33;;
71836;SDS011;59686;51.716;7.016;2022-12-18T09:38:42;13.07;;;9.03;;
71836;SDS011;59686;51.716;7.016;2022-12-18T09:49:34;12.43;;;8.47;;
71836;SDS011;59686;51.716;7.016;2022-12-18T09:54:40;12.33;;;8.27;;
71836;SDS011;59686;51.716;7.016;2022-12-18T09:57:13;12.87;;;8.60;;
71836;SDS011;59686;51.716;7.016;2022-12-18T09:59:40;12.50;;;8.40;;
71836;SDS011;59686;51.716;7.016;2022-12-18T10:02:21;12.53;;;8.70;;
71836;SDS011;59686;51.716;7.016;2022-12-18T10:05:11;11.47;;;7.97;;
71836;SDS011;59686;51.716;7.016;2022-12-18T10:07:40;12.30;;;8.20;;
71836;SDS011;59686;51.716;7.016;2022-12-18T10:10:30;11.77;;;7.83;;
71836;SDS011;59686;51.716;7.016;2022-12-18T10:13:13;11.23;;;8.63;;
71836;SDS011;59686;51.716;7.016;2022-12-18T10:15:51;11.93;;;8.30;;
71836;SDS011;59686;51.716;7.016;2022-12-18T10:18:44;11.20;;;7.80;;
71836;SDS011;59686;51.716;7.016;2022-12-18T10:21:32;12.97;;;8.60;;
71836;SDS011;59686;51.716;7.016;2022-12-18T10:26:47;14.80;;;8.50;;
71836;SDS011;59686;51.716;7.016;2022-12-18T10:29:14;11.23;;;7.93;;
71836;SDS011;59686;51.716;7.016;2022-12-18T10:31:41;13.33;;;8.17;;
71836;SDS011;59686;51.716;7.016;2022-12-18T10:34:14;12.07;;;7.80;;
71836;SDS011;59686;51.716;7.016;2022-12-18T10:36:40;11.87;;;9.00;;
71836;SDS011;59686;51.716;7.016;2022-12-18T10:39:14;12.20;;;8.50;;
71836;SDS011;59686;51.716;7.016;2022-12-18T10:41:44;11.67;;;7.73;;
71836;SDS011;59686;51.716;7.016;2022-12-18T10:46:43;10.17;;;7.87;;
71836;SDS011;59686;51.716;7.016;2022-12-18T10:49:25;10.97;;;7.83;;
71836;SDS011;59686;51.716;7.016;2022-12-18T10:52:07;12.90;;;8.63;;
71836;SDS011;59686;51.716;7.016;2022-12-18T10:55:02;10.07;;;7.50;;
71836;SDS011;59686;51.716;7.016;2022-12-18T10:57:32;12.27;;;8.00;;
71836;SDS011;59686;51.716;7.016;2022-12-18T11:02:45;11.80;;;6.77;;
71836;SDS011;59686;51.716;7.016;2022-12-18T11:05:24;12.03;;;7.50;;
71836;SDS011;59686;51.716;7.016;2022-12-18T11:10:31;10.63;;;7.23;;
71836;SDS011;59686;51.716;7.016;2022-12-18T11:13:12;10.27;;;7.50;;
71836;SDS011;59686;51.716;7.016;2022-12-18T11:15:52;10.00;;;6.93;;
71836;SDS011;59686;51.716;7.016;2022-12-18T11:20:54;10.23;;;6.50;;
71836;SDS011;59686;51.716;7.016;2022-12-18T11:25:57;13.07;;;7.23;;
71836;SDS011;59686;51.716;7.016;2022-12-18T11:28:27;9.47;;;6.83;;
71836;SDS011;59686;51.716;7.016;2022-12-18T11:31:09;11.00;;;7.37;;
71836;SDS011;59686;51.716;7.016;2022-12-18T11:33:48;9.27;;;6.83;;
71836;SDS011;59686;51.716;7.016;2022-12-18T11:36:36;10.33;;;7.00;;
71836;SDS011;59686;51.716;7.016;2022-12-18T11:39:18;12.57;;;7.53;;
71836;SDS011;59686;51.716;7.016;2022-12-18T11:48:01;12.00;;;6.93;;
71836;SDS011;59686;51.716;7.016;2022-12-18T11:50:25;10.57;;;7.30;;
71836;SDS011;59686;51.716;7.016;2022-12-18T11:52:57;12.70;;;7.03;;
71836;SDS011;59686;51.716;7.016;2022-12-18T12:01:40;10.37;;;7.00;;
71836;SDS011;59686;51.716;7.016;2022-12-18T12:16:02;9.37;;;6.57;;
71836;SDS011;59686;51.716;7.016;2022-12-18T12:18:24;9.77;;;7.07;;
71836;SDS011;59686;51.716;7.016;2022-12-18T12:21:05;10.53;;;6.57;;
71836;SDS011;59686;51.716;7.016;2022-12-18T12:23:49;10.63;;;7.40;;
71836;SDS011;59686;51.716;7.016;2022-12-18T12:26:24;9.33;;;6.70;;
71836;SDS011;59686;51.716;7.016;2022-12-18T12:29:18;10.83;;;7.07;;
71836;SDS011;59686;51.716;7.016;2022-12-18T12:31:56;9.10;;;6.77;;
71836;SDS011;59686;51.716;7.016;2022-12-18T12:40:13;9.83;;;6.70;;
71836;SDS011;59686;51.716;7.016;2022-12-18T12:42:44;11.03;;;7.17;;
71836;SDS011;59686;51.716;7.016;2022-12-18T12:48:04;7.83;;;6.40;;
71836;SDS011;59686;51.716;7.016;2022-12-18T12:50:40;8.80;;;6.53;;
71836;SDS011;59686;51.716;7.016;2022-12-18T12:53:07;8.77;;;6.60;;
71836;SDS011;59686;51.716;7.016;2022-12-18T12:55:40;9.47;;;6.60;;
71836;SDS011;59686;51.716;7.016;2022-12-18T13:00:47;9.87;;;6.47;;
71836;SDS011;59686;51.716;7.016;2022-12-18T13:07:10;9.37;;;6.40;;
71836;SDS011;59686;51.716;7.016;2022-12-18T13:10:14;9.40;;;6.50;;
71836;SDS011;59686;51.716;7.016;2022-12-18T13:12:51;9.70;;;6.30;;
71836;SDS011;59686;51.716;7.016;2022-12-18T13:18:21;9.77;;;6.30;;
71836;SDS011;59686;51.716;7.016;2022-12-18T13:25:47;10.60;;;6.27;;
71836;SDS011;59686;51.716;7.016;2022-12-18T13:28:20;8.40;;;5.93;;
71836;SDS011;59686;51.716;7.016;2022-12-18T13:43:43;7.40;;;5.83;;
71836;SDS011;59686;51.716;7.016;2022-12-18T13:46:19;8.53;;;6.13;;
71836;SDS011;59686;51.716;7.016;2022-12-18T13:51:43;8.30;;;5.67;;
71836;SDS011;59686;51.716;7.016;2022-12-18T13:57:05;7.20;;;5.43;;
71836;SDS011;59686;51.716;7.016;2022-12-18T14:00:14;10.53;;;5.97;;
71836;SDS011;59686;51.716;7.016;2022-12-18T14:02:44;8.27;;;5.53;;
71836;SDS011;59686;51.716;7.016;2022-12-18T14:05:23;8.73;;;6.47;;
71836;SDS011;59686;51.716;7.016;2022-12-18T14:07:51;10.43;;;6.17;;
71836;SDS011;59686;51.716;7.016;2022-12-18T14:10:21;10.97;;;6.87;;
71836;SDS011;59686;51.716;7.016;2022-12-18T14:12:48;11.70;;;7.43;;
71836;SDS011;59686;51.716;7.016;2022-12-18T14:17:56;12.50;;;7.57;;
71836;SDS011;59686;51.716;7.016;2022-12-18T14:20:35;11.33;;;7.37;;
71836;SDS011;59686;51.716;7.016;2022-12-18T14:23:01;12.47;;;7.53;;
71836;SDS011;59686;51.716;7.016;2022-12-18T14:25:28;10.77;;;7.00;;
71836;SDS011;59686;51.716;7.016;2022-12-18T14:30:40;12.43;;;7.87;;
71836;SDS011;59686;51.716;7.016;2022-12-18T14:35:58;12.90;;;7.97;;
71836;SDS011;59686;51.716;7.016;2022-12-18T14:38:36;10.93;;;7.23;;
71836;SDS011;59686;51.716;7.016;2022-12-18T14:41:09;11.47;;;7.23;;
71836;SDS011;59686;51.716;7.016;2022-12-18T14:43:38;10.20;;;7.40;;
71836;SDS011;59686;51.716;7.016;2022-12-18T14:49:24;12.50;;;7.10;;
71836;SDS011;59686;51.716;7.016;2022-12-18T14:54:24;9.97;;;6.53;;
71836;SDS011;59686;51.716;7.016;2022-12-18T15:02:13;9.77;;;6.53;;
71836;SDS011;59686;51.716;7.016;2022-12-18T15:04:46;9.23;;;6.70;;
71836;SDS011;59686;51.716;7.016;2022-12-18T15:07:14;9.43;;;6.17;;
71836;SDS011;59686;51.716;7.016;2022-12-18T15:12:41;9.90;;;6.67;;
71836;SDS011;59686;51.716;7.016;2022-12-18T15:18:15;9.83;;;6.03;;
71836;SDS011;59686;51.716;7.016;2022-12-18T15:23:24;10.37;;;6.60;;
71836;SDS011;59686;51.716;7.016;2022-12-18T15:25:57;10.70;;;7.03;;
71836;SDS011;59686;51.716;7.016;2022-12-18T15:33:31;9.93;;;6.70;;
71836;SDS011;59686;51.716;7.016;2022-12-18T15:36:14;9.60;;;6.83;;
71836;SDS011;59686;51.716;7.016;2022-12-18T15:38:43;8.30;;;5.97;;
71836;SDS011;59686;51.716;7.016;2022-12-18T15:41:16;9.80;;;6.50;;
71836;SDS011;59686;51.716;7.016;2022-12-18T15:43:43;8.77;;;6.10;;
71836;SDS011;59686;51.716;7.016;2022-12-18T15:46:25;10.73;;;7.13;;
71836;SDS011;59686;51.716;7.016;2022-12-18T15:48:56;8.67;;;6.40;;
71836;SDS011;59686;51.716;7.016;2022-12-18T15:51:23;8.93;;;6.50;;
71836;SDS011;59686;51.716;7.016;2022-12-18T15:53:54;9.73;;;6.23;;
71836;SDS011;59686;51.716;7.016;2022-12-18T15:56:23;8.63;;;6.03;;
71836;SDS011;59686;51.716;7.016;2022-12-18T15:59:11;8.87;;;6.47;;
71836;SDS011;59686;51.716;7.016;2022-12-18T16:01:46;8.80;;;6.40;;
71836;SDS011;59686;51.716;7.016;2022-12-18T16:04:15;8.93;;;6.33;;
71836;SDS011;59686;51.716;7.016;2022-12-18T16:06:46;7.67;;;6.10;;
71836;SDS011;59686;51.716;7.016;2022-12-18T16:09:12;8.50;;;6.43;;
71836;SDS011;59686;51.716;7.016;2022-12-18T16:11:39;7.73;;;6.17;;
71836;SDS011;59686;51.716;7.016;2022-12-18T16:14:23;8.90;;;6.33;;
71836;SDS011;59686;51.716;7.016;2022-12-18T16:16:54;9.43;;;6.43;;
71836;SDS011;59686;51.716;7.016;2022-12-18T16:19:30;7.77;;;6.10;;
71836;SDS011;59686;51.716;7.016;2022-12-18T16:21:57;11.07;;;6.70;;
71836;SDS011;59686;51.716;7.016;2022-12-18T16:24:24;9.60;;;6.77;;
71836;SDS011;59686;51.716;7.016;2022-12-18T16:26:52;9.53;;;6.40;;
71836;SDS011;59686;51.716;7.016;2022-12-18T16:29:19;9.57;;;6.20;;
71836;SDS011;59686;51.716;7.016;2022-12-18T16:31:52;10.93;;;6.67;;
71836;SDS011;59686;51.716;7.016;2022-12-18T16:36:58;9.93;;;6.43;;
71836;SDS011;59686;51.716;7.016;2022-12-18T16:39:26;9.13;;;6.90;;
71836;SDS011;59686;51.716;7.016;2022-12-18T16:41:52;11.80;;;6.73;;
71836;SDS011;59686;51.716;7.016;2022-12-18T16:44:17;10.80;;;6.90;;
71836;SDS011;59686;51.716;7.016;2022-12-18T16:46:47;11.40;;;6.60;;
71836;SDS011;59686;51.716;7.016;2022-12-18T16:49:16;10.33;;;7.10;;
71836;SDS011;59686;51.716;7.016;2022-12-18T16:51:43;10.87;;;6.87;;
71836;SDS011;59686;51.716;7.016;2022-12-18T16:54:12;8.67;;;6.50;;
71836;SDS011;59686;51.716;7.016;2022-12-18T16:56:38;8.10;;;6.90;;
71836;SDS011;59686;51.716;7.016;2022-12-18T16:59:04;9.23;;;6.43;;
71836;SDS011;59686;51.716;7.016;2022-12-18T17:01:30;9.40;;;6.97;;
71836;SDS011;59686;51.716;7.016;2022-12-18T17:04:01;12.20;;;7.30;;
71836;SDS011;59686;51.716;7.016;2022-12-18T17:06:29;10.27;;;7.50;;
71836;SDS011;59686;51.716;7.016;2022-12-18T17:09:00;10.17;;;7.27;;
71836;SDS011;59686;51.716;7.016;2022-12-18T17:11:29;12.90;;;7.17;;
71836;SDS011;59686;51.716;7.016;2022-12-18T17:13:56;10.77;;;7.47;;
71836;SDS011;59686;51.716;7.016;2022-12-18T17:16:30;10.33;;;7.67;;
71836;SDS011;59686;51.716;7.016;2022-12-18T17:18:56;10.93;;;7.13;;
71836;SDS011;59686;51.716;7.016;2022-12-18T17:21:22;10.90;;;7.23;;
71836;SDS011;59686;51.716;7.016;2022-12-18T17:23:47;12.23;;;7.90;;
71836;SDS011;59686;51.716;7.016;2022-12-18T17:26:13;12.73;;;8.40;;
71836;SDS011;59686;51.716;7.016;2022-12-18T17:28:39;10.20;;;7.10;;
71836;SDS011;59686;51.716;7.016;2022-12-18T17:31:17;10.70;;;7.57;;
71836;SDS011;59686;51.716;7.016;2022-12-18T17:33:45;10.67;;;7.20;;
71836;SDS011;59686;51.716;7.016;2022-12-18T17:36:11;9.83;;;7.20;;
71836;SDS011;59686;51.716;7.016;2022-12-18T17:38:37;11.03;;;7.57;;